createdAt,value
2023-04-25T00:02:14.604Z,98816.12
2023-04-25T00:05:18.571Z,98812.97
2023-04-25T00:08:22.267Z,98811.06
2023-04-25T00:11:25.524Z,98809.06
2023-04-25T00:14:29.010Z,98801.75
2023-04-25T00:17:32.603Z,98807.97
2023-04-25T00:20:36.875Z,98806.44
2023-04-25T00:23:40.538Z,98803.72
2023-04-25T00:26:43.513Z,98803.72
2023-04-25T00:29:46.995Z,98800.97
2023-04-25T00:32:50.240Z,98805.59
2023-04-25T00:35:53.535Z,98802.53
2023-04-25T00:38:56.966Z,98789.03
2023-04-25T00:42:00.322Z,98794.09
2023-04-25T00:45:06.130Z,98787.94
2023-04-25T00:48:09.382Z,98792.62
2023-04-25T00:51:15.828Z,98801.16
2023-04-25T00:54:19.050Z,98791.47
2023-04-25T00:57:22.140Z,98784.47
2023-04-25T01:00:26.706Z,98786.44
2023-04-25T01:03:32.231Z,98784.91
2023-04-25T01:06:35.625Z,98791.06
2023-04-25T01:09:39.853Z,98796.87
2023-04-25T01:12:43.089Z,98790.66
2023-04-25T01:15:46.393Z,98789.50
2023-04-25T01:18:49.789Z,98789.87
2023-04-25T01:21:53.065Z,98788.75
2023-04-25T01:24:56.953Z,98786.00
2023-04-25T01:28:00.205Z,98799.22
2023-04-25T01:31:04.278Z,98789.53
2023-04-25T01:34:07.240Z,98795.31
2023-04-25T01:37:10.755Z,98786.06
2023-04-25T01:40:14.375Z,98783.28
2023-04-25T01:43:17.849Z,98786.09
2023-04-25T01:46:20.908Z,98784.47
2023-04-25T01:49:25.650Z,98789.94
2023-04-25T01:52:28.593Z,98784.91
2023-04-25T01:55:33.515Z,98779.91
2023-04-25T01:58:38.231Z,98793.00
2023-04-25T02:01:42.070Z,98793.03
2023-04-25T02:04:46.740Z,98790.69
2023-04-25T02:07:50.078Z,98788.34
2023-04-25T02:10:53.404Z,98789.53
2023-04-25T02:13:56.303Z,98785.69
2023-04-25T02:16:59.741Z,98787.16
2023-04-25T02:20:03.047Z,98786.41
2023-04-25T02:23:06.455Z,98786.53
2023-04-25T02:26:09.283Z,98788.03
2023-04-25T02:29:12.467Z,98791.56
2023-04-25T02:32:15.710Z,98780.75
2023-04-25T02:35:19.919Z,98783.84
2023-04-25T02:38:23.224Z,98795.44
2023-04-25T02:41:26.372Z,98797.00
2023-04-25T02:44:31.718Z,98793.50
2023-04-25T02:47:34.830Z,98793.53
2023-04-25T02:50:38.134Z,98802.88
2023-04-25T02:53:41.208Z,98792.41
2023-04-25T02:56:44.384Z,98786.25
2023-04-25T02:59:47.990Z,98793.97
2023-04-25T03:02:52.176Z,98782.78
2023-04-25T03:05:55.526Z,98784.31
2023-04-25T03:08:59.266Z,98778.91
2023-04-25T03:12:02.668Z,98777.41
2023-04-25T03:15:09.467Z,98776.63
2023-04-25T03:18:12.459Z,98770.81
2023-04-25T03:21:15.975Z,98774.72
2023-04-25T03:24:18.881Z,98781.66
2023-04-25T03:27:22.049Z,98785.53
2023-04-25T03:30:25.671Z,98778.56
2023-04-25T03:33:29.389Z,98773.97
2023-04-25T03:36:33.739Z,98776.66
2023-04-25T03:39:37.162Z,98786.31
2023-04-25T03:42:40.067Z,98786.69
2023-04-25T03:45:43.457Z,98795.59
2023-04-25T03:48:46.398Z,98798.69
2023-04-25T03:51:51.011Z,98801.38
2023-04-25T03:54:54.127Z,98797.50
2023-04-25T03:57:59.545Z,98795.19
2023-04-25T04:01:04.643Z,98806.41
2023-04-25T04:04:08.152Z,98803.31
2023-04-25T04:07:11.813Z,98804.47
2023-04-25T04:10:15.853Z,98810.28
2023-04-25T04:13:18.807Z,98810.28
2023-04-25T04:16:23.203Z,98804.87
2023-04-25T04:19:27.015Z,98810.66
2023-04-25T04:22:31.501Z,98814.47
2023-04-25T04:25:35.571Z,98812.19
2023-04-25T04:28:39.086Z,98814.13
2023-04-25T04:31:42.207Z,98814.91
2023-04-25T04:34:45.970Z,98812.97
2023-04-25T04:37:50.948Z,98817.16
2023-04-25T04:40:54.878Z,98805.97
2023-04-25T04:43:58.691Z,98815.97
2023-04-25T04:47:07.326Z,98810.59
2023-04-25T04:50:11.686Z,98813.66
2023-04-25T04:53:15.760Z,98823.69
2023-04-25T04:56:19.160Z,98817.50
2023-04-25T04:59:23.624Z,98811.34
2023-04-25T05:02:27.034Z,98829.50
2023-04-25T05:05:33.767Z,98815.22
2023-04-25T05:08:37.915Z,98814.03
2023-04-25T05:11:41.866Z,98819.84
2023-04-25T05:14:46.590Z,98822.16
2023-04-25T05:17:50.085Z,98817.16
2023-04-25T05:20:54.535Z,98821.81
2023-04-25T05:23:58.152Z,98812.87
2023-04-25T05:27:02.201Z,98818.38
2023-04-25T05:30:07.413Z,98817.59
2023-04-25T05:33:10.733Z,98818.78
2023-04-25T05:36:14.924Z,98822.22
2023-04-25T05:39:18.626Z,98824.56
2023-04-25T05:42:22.590Z,98820.31
2023-04-25T05:45:26.009Z,98813.75
2023-04-25T05:48:29.381Z,98814.53
2023-04-25T05:51:32.819Z,98818.38
2023-04-25T05:54:36.502Z,98818.78
2023-04-25T05:57:42.470Z,98808.72
2023-04-25T06:00:45.938Z,98809.88
2023-04-25T06:03:49.488Z,98818.78
2023-04-25T06:06:53.611Z,98819.94
2023-04-25T06:09:58.746Z,98807.59
2023-04-25T06:13:02.195Z,98810.25
2023-04-25T06:16:06.581Z,98813.34
2023-04-25T06:19:09.531Z,98812.56
2023-04-25T06:22:12.750Z,98813.31
2023-04-25T06:25:17.873Z,98810.56
2023-04-25T06:28:23.238Z,98808.62
2023-04-25T06:31:26.461Z,98811.72
2023-04-25T06:34:31.601Z,98811.66
2023-04-25T06:37:36.145Z,98807.84
2023-04-25T06:40:39.471Z,98808.47
2023-04-25T06:43:42.762Z,98817.41
2023-04-25T06:46:46.615Z,98805.47
2023-04-25T06:49:50.563Z,98799.28
2023-04-25T06:52:53.949Z,98808.88
2023-04-25T06:55:57.275Z,98809.72
2023-04-25T06:59:02.029Z,98810.81
2023-04-25T07:02:05.465Z,98813.50
2023-04-25T07:05:09.361Z,98809.47
2023-04-25T07:08:12.366Z,98809.19
2023-04-25T07:11:15.580Z,98811.94
2023-04-25T07:14:18.999Z,98808.09
2023-04-25T07:17:23.122Z,98812.22
2023-04-25T07:20:26.306Z,98806.44
2023-04-25T07:23:30.038Z,98807.94
2023-04-25T07:26:35.034Z,98798.34
2023-04-25T07:29:40.549Z,98802.25
2023-04-25T07:32:43.598Z,98802.88
2023-04-25T07:35:47.058Z,98791.69
2023-04-25T07:38:50.470Z,98783.16
2023-04-25T07:41:55.325Z,98791.19
2023-04-25T07:44:59.496Z,98802.03
2023-04-25T07:48:04.224Z,98807.13
2023-04-25T07:51:08.553Z,98808.66
2023-04-25T07:54:17.040Z,98801.12
2023-04-25T07:57:21.362Z,98800.81
2023-04-25T08:00:25.060Z,98794.88
2023-04-25T08:03:29.030Z,98803.81
2023-04-25T08:06:32.819Z,98799.41
2023-04-25T08:09:37.953Z,98804.84
2023-04-25T08:12:41.194Z,98807.16
2023-04-25T08:15:44.783Z,98803.25
2023-04-25T08:18:48.045Z,98807.53
2023-04-25T08:21:53.248Z,98817.13
2023-04-25T08:24:57.471Z,98813.63
2023-04-25T08:28:03.824Z,98814.13
2023-04-25T08:31:07.355Z,98828.06
2023-04-25T08:34:10.933Z,98831.94
2023-04-25T08:37:13.885Z,98824.63
2023-04-25T08:40:17.426Z,98814.09
2023-04-25T08:43:21.789Z,98834.34
2023-04-25T08:46:25.509Z,98826.31
2023-04-25T08:49:29.557Z,98834.97
2023-04-25T08:52:38.630Z,98830.38
2023-04-25T08:55:42.445Z,98821.72
2023-04-25T08:58:47.117Z,98836.22
2023-04-25T09:01:51.152Z,98833.81
2023-04-25T09:04:56.621Z,98829.50
2023-04-25T09:07:59.644Z,98828.97
2023-04-25T09:11:03.020Z,98833.28
2023-04-25T09:14:15.159Z,98839.03
2023-04-25T09:17:19.274Z,98833.59
2023-04-25T09:20:22.400Z,98829.50
2023-04-25T09:23:25.853Z,98823.47
2023-04-25T09:26:28.791Z,98826.63
2023-04-25T09:29:37.434Z,98833.19
2023-04-25T09:32:40.813Z,98835.09
2023-04-25T09:35:46.503Z,98846.72
2023-04-25T09:38:50.253Z,98831.78
2023-04-25T09:41:56.936Z,98841.22
2023-04-25T09:45:02.888Z,98834.87
2023-04-25T09:48:07.972Z,98837.59
2023-04-25T09:51:15.158Z,98819.56
2023-04-25T09:54:18.636Z,98852.34
2023-04-25T09:57:27.051Z,98840.09
2023-04-25T10:00:32.013Z,98834.84
2023-04-25T10:03:42.799Z,98835.28
2023-04-25T10:06:47.399Z,98837.06
2023-04-25T10:09:56.533Z,98827.72
2023-04-25T10:12:59.607Z,98839.53
2023-04-25T10:16:05.156Z,98834.09
2023-04-25T10:19:08.669Z,98838.94
2023-04-25T10:22:19.853Z,98836.22
2023-04-25T10:25:24.114Z,98842.16
2023-04-25T10:28:27.671Z,98833.69
2023-04-25T10:31:32.058Z,98839.06
2023-04-25T10:34:48.196Z,98841.31
2023-04-25T10:38:07.272Z,98833.81
2023-04-25T10:41:12.526Z,98834.09
2023-04-25T10:44:16.485Z,98839.72
2023-04-25T10:47:36.177Z,98843.34
2023-04-25T10:50:40.828Z,98837.31
2023-04-25T10:53:47.821Z,98832.69
2023-04-25T10:56:51.970Z,98843.41
2023-04-25T10:59:55.256Z,98832.88
2023-04-25T11:03:02.408Z,98833.88
2023-04-25T11:06:07.037Z,98836.59
2023-04-25T11:09:16.611Z,98839.56
2023-04-25T11:12:19.778Z,98844.78
2023-04-25T11:15:22.724Z,98847.91
2023-04-25T11:18:28.395Z,98838.53
2023-04-25T11:21:33.012Z,98850.00
2023-04-25T11:24:37.822Z,98848.28
2023-04-25T11:27:58.616Z,98851.00
2023-04-25T11:31:01.846Z,98861.44
2023-04-25T11:34:05.656Z,98865.53
2023-04-25T11:37:08.910Z,98866.75
2023-04-25T11:40:12.864Z,98879.87
2023-04-25T11:43:16.392Z,98878.66
2023-04-25T11:46:21.333Z,98885.28
2023-04-25T11:49:26.059Z,98882.81
2023-04-25T11:52:43.723Z,98893.56
2023-04-25T11:55:47.019Z,98901.34
2023-04-25T11:58:58.698Z,98895.06
2023-04-25T12:02:03.058Z,98889.03
2023-04-25T12:05:29.227Z,98901.59
2023-04-25T12:08:33.961Z,98902.22
2023-04-25T12:11:44.964Z,98897.81
2023-04-25T12:14:50.218Z,98893.88
2023-04-25T12:17:56.288Z,98874.16
2023-04-25T12:21:01.183Z,98880.63
2023-04-25T12:24:15.448Z,98876.12
2023-04-25T12:27:20.322Z,98872.13
2023-04-25T12:30:24.103Z,98877.91
2023-04-25T12:33:30.048Z,98864.50
2023-04-25T12:36:33.821Z,98886.22
2023-04-25T12:39:36.751Z,98866.81
2023-04-25T12:42:41.549Z,98864.22
2023-04-25T12:45:48.394Z,98840.91
2023-04-25T12:48:52.334Z,98863.63
2023-04-25T12:51:55.731Z,98857.72
2023-04-25T12:54:58.915Z,98863.31
2023-04-25T12:58:02.071Z,98837.06
2023-04-25T13:01:06.381Z,98843.69
2023-04-25T13:04:09.622Z,98827.94
2023-04-25T13:07:12.922Z,98855.38
2023-04-25T13:10:16.055Z,98834.91
2023-04-25T13:13:19.435Z,98848.88
2023-04-25T13:16:22.618Z,98832.12
2023-04-25T13:19:26.818Z,98832.34
2023-04-25T13:22:29.725Z,98842.16
2023-04-25T13:25:33.031Z,98841.09
2023-04-25T13:28:36.030Z,98838.53
2023-04-25T13:31:39.943Z,98843.88
2023-04-25T13:34:43.121Z,98837.03
2023-04-25T13:37:46.494Z,98831.97
2023-04-25T13:40:50.463Z,98827.34
2023-04-25T13:43:54.877Z,98830.91
2023-04-25T13:46:58.049Z,98821.84
2023-04-25T13:50:03.734Z,98835.50
2023-04-25T13:53:06.729Z,98820.37
2023-04-25T13:56:10.009Z,98818.47
2023-04-25T13:59:12.989Z,98829.59
2023-04-25T14:02:16.252Z,98820.81
2023-04-25T14:05:19.530Z,98832.06
2023-04-25T14:08:22.497Z,98818.66
2023-04-25T14:11:26.508Z,98819.87
2023-04-25T14:14:29.451Z,98816.53
2023-04-25T14:17:33.598Z,98815.56
2023-04-25T14:20:36.778Z,98828.84
2023-04-25T14:23:39.997Z,98819.63
2023-04-25T14:26:43.574Z,98812.94
2023-04-25T14:29:47.370Z,98823.72
2023-04-25T14:32:51.033Z,98813.06
2023-04-25T14:35:54.392Z,98811.50
2023-04-25T14:38:57.335Z,98830.00
2023-04-25T14:42:01.071Z,98809.97
2023-04-25T14:45:05.523Z,98822.03
2023-04-25T14:48:09.092Z,98819.53
2023-04-25T14:51:12.199Z,98823.34
2023-04-25T14:54:15.332Z,98829.94
2023-04-25T14:57:19.644Z,98830.59
2023-04-25T15:00:23.243Z,98848.38
2023-04-25T15:03:27.288Z,98837.59
2023-04-25T15:06:31.481Z,98842.50
2023-04-25T15:09:34.457Z,98831.00
2023-04-25T15:12:38.372Z,98844.66
2023-04-25T15:15:41.548Z,98841.34
2023-04-25T15:18:44.865Z,98850.75
2023-04-25T15:21:48.570Z,98844.03
2023-04-25T15:24:51.834Z,98848.28
2023-04-25T15:27:56.005Z,98853.56
2023-04-25T15:30:59.191Z,98861.91
2023-04-25T15:34:02.068Z,98847.91
2023-04-25T15:37:05.213Z,98844.66
2023-04-25T15:40:10.616Z,98847.44
2023-04-25T15:43:16.179Z,98836.66
2023-04-25T15:46:19.340Z,98843.63
2023-04-25T15:49:24.204Z,98856.53
2023-04-25T15:52:27.737Z,98853.06
2023-04-25T15:55:32.167Z,98842.59
2023-04-25T15:58:36.371Z,98845.00
2023-04-25T16:01:40.526Z,98840.72
2023-04-25T16:04:44.103Z,98846.25
2023-04-25T16:07:47.892Z,98844.34
2023-04-25T16:10:51.257Z,98835.00
2023-04-25T16:13:54.318Z,98830.03
2023-04-25T16:16:57.517Z,98830.44
2023-04-25T16:20:02.158Z,98827.03
2023-04-25T16:23:05.412Z,98830.78
2023-04-25T16:26:09.070Z,98830.75
2023-04-25T16:29:14.748Z,98826.50
2023-04-25T16:32:17.907Z,98825.47
2023-04-25T16:35:21.776Z,98824.50
2023-04-25T16:38:25.702Z,98839.91
2023-04-25T16:41:30.284Z,98837.78
2023-04-25T16:44:34.798Z,98836.03
2023-04-25T16:47:38.036Z,98828.47
2023-04-25T16:50:41.852Z,98827.31
2023-04-25T16:53:46.707Z,98832.88
2023-04-25T16:56:49.668Z,98832.41
2023-04-25T16:59:53.030Z,98830.66
2023-04-25T17:02:57.836Z,98838.62
2023-04-25T17:06:02.674Z,98837.00
2023-04-25T17:09:06.654Z,98854.19
2023-04-25T17:12:10.204Z,98853.81
2023-04-25T17:15:13.752Z,98850.75
2023-04-25T17:18:17.426Z,98861.22
2023-04-25T17:21:20.729Z,98869.19
2023-04-25T17:24:24.425Z,98859.97
2023-04-25T17:27:27.908Z,98869.91
2023-04-25T17:30:33.219Z,98874.66
2023-04-25T17:33:37.203Z,98887.75
2023-04-25T17:36:40.709Z,98890.22
2023-04-25T17:39:45.497Z,98899.59
2023-04-25T17:42:53.312Z,98897.53
2023-04-25T17:45:59.626Z,98909.84
2023-04-25T17:49:03.892Z,98914.28
2023-04-25T17:52:08.512Z,98919.06
2023-04-25T17:55:13.606Z,98925.97
2023-04-25T17:58:17.835Z,98925.72
2023-04-25T18:01:21.474Z,98931.97
2023-04-25T18:04:26.013Z,98936.63
2023-04-25T18:07:29.913Z,98938.91
2023-04-25T18:10:34.924Z,98932.00
2023-04-25T18:13:39.148Z,98942.03
2023-04-25T18:16:44.893Z,98946.47
2023-04-25T18:19:49.398Z,98946.44
2023-04-25T18:22:53.563Z,98955.91
2023-04-25T18:25:57.365Z,98958.66
2023-04-25T18:29:01.915Z,98967.16
2023-04-25T18:32:05.875Z,98963.69
2023-04-25T18:35:10.725Z,98964.06
2023-04-25T18:38:16.954Z,98967.13
2023-04-25T18:41:51.015Z,98966.28
2023-04-25T18:44:52.474Z,98963.31
2023-04-25T18:47:56.808Z,98967.53
2023-04-25T18:51:00.860Z,98971.41
2023-04-25T18:54:08.839Z,98974.94
2023-04-25T18:57:14.893Z,98980.00
2023-04-25T19:00:20.061Z,98977.28
2023-04-25T19:03:23.745Z,98980.75
2023-04-25T19:06:29.641Z,98986.16
2023-04-25T19:09:33.423Z,98988.50
2023-04-25T19:12:38.077Z,98994.31
2023-04-25T19:15:41.181Z,98999.78
2023-04-25T19:18:47.008Z,99004.47
2023-04-25T19:21:51.345Z,98998.28
2023-04-25T19:25:09.241Z,98992.84
2023-04-25T19:28:14.455Z,98998.62
2023-04-25T19:31:19.615Z,98998.66
2023-04-25T19:34:23.957Z,99005.22
2023-04-25T19:37:41.193Z,99011.06
2023-04-25T19:40:45.548Z,99021.88
2023-04-25T19:43:50.471Z,99019.56
2023-04-25T19:46:54.304Z,99026.91
2023-04-25T19:49:57.752Z,99026.13
2023-04-25T19:53:01.797Z,99017.63
2023-04-25T19:56:05.933Z,99018.75
2023-04-25T19:59:09.443Z,99020.31
2023-04-25T20:02:12.819Z,99020.69
2023-04-25T20:05:18.454Z,99014.47
2023-04-25T20:08:23.588Z,99017.94
2023-04-25T20:11:29.775Z,99019.44
2023-04-25T20:14:33.404Z,99020.25
2023-04-25T20:17:38.182Z,99015.59
2023-04-25T20:20:41.623Z,99017.13
2023-04-25T20:23:45.635Z,99029.84
2023-04-25T20:26:50.002Z,99037.22
2023-04-25T20:29:53.145Z,99026.41
2023-04-25T20:32:57.031Z,99021.78
2023-04-25T20:36:01.762Z,99036.88
2023-04-25T20:39:04.987Z,99046.09
2023-04-25T20:42:08.285Z,99046.84
2023-04-25T20:45:14.775Z,99051.09
2023-04-25T20:48:18.064Z,99058.84
2023-04-25T20:51:21.133Z,99061.91
2023-04-25T20:54:27.080Z,99063.81
2023-04-25T20:57:30.100Z,99058.31
2023-04-25T21:00:34.542Z,99060.31
2023-04-25T21:03:37.565Z,99063.31
2023-04-25T21:06:41.361Z,99066.81
2023-04-25T21:09:45.680Z,99060.72
2023-04-25T21:12:49.940Z,99062.19
2023-04-25T21:15:53.141Z,99069.97
2023-04-25T21:18:56.391Z,99055.50
2023-04-25T21:22:00.456Z,99065.31
2023-04-25T21:25:06.773Z,99066.84
2023-04-25T21:28:11.068Z,99069.19
2023-04-25T21:31:14.953Z,99072.25
2023-04-25T21:34:18.326Z,99076.47
2023-04-25T21:37:21.403Z,99071.84
2023-04-25T21:40:24.287Z,99082.94
2023-04-25T21:43:27.505Z,99092.56
2023-04-25T21:46:30.413Z,99089.47
2023-04-25T21:49:33.797Z,99097.22
2023-04-25T21:52:37.251Z,99088.72
2023-04-25T21:55:40.603Z,99096.88
2023-04-25T21:58:43.511Z,99093.69
2023-04-25T22:01:47.929Z,99101.06
2023-04-25T22:04:51.544Z,99104.81
2023-04-25T22:07:58.621Z,99098.50
2023-04-25T22:11:02.935Z,99094.63
2023-04-25T22:14:06.078Z,99096.63
2023-04-25T22:17:12.181Z,99097.69
2023-04-25T22:20:16.123Z,99113.28
2023-04-25T22:23:19.522Z,99106.97
2023-04-25T22:26:26.830Z,99114.12
2023-04-25T22:29:30.080Z,99112.47
2023-04-25T22:32:34.253Z,99113.78
2023-04-25T22:35:37.503Z,99122.22
2023-04-25T22:38:44.215Z,99124.94
2023-04-25T22:41:48.073Z,99123.31
2023-04-25T22:44:52.171Z,99131.53
2023-04-25T22:47:55.557Z,99131.84
2023-04-25T22:51:03.154Z,99136.06
2023-04-25T22:54:06.485Z,99147.84
2023-04-25T22:57:09.577Z,99152.16
2023-04-25T23:00:16.791Z,99163.75
2023-04-25T23:03:19.903Z,99156.06
2023-04-25T23:06:23.256Z,99161.16
2023-04-25T23:09:27.701Z,99168.13
2023-04-25T23:12:30.942Z,99173.16
2023-04-25T23:15:34.954Z,99174.97
2023-04-25T23:18:39.581Z,99176.59
2023-04-25T23:21:42.769Z,99172.25
2023-04-25T23:24:46.188Z,99176.56
2023-04-25T23:27:49.126Z,99175.75
2023-04-25T23:30:52.701Z,99180.81
2023-04-25T23:33:55.767Z,99190.09
2023-04-25T23:37:03.529Z,99188.94
2023-04-25T23:40:08.735Z,99186.22
2023-04-25T23:43:12.926Z,99189.34
2023-04-25T23:46:15.834Z,99186.22
2023-04-25T23:49:19.037Z,99190.38
2023-04-25T23:52:21.914Z,99185.78
2023-04-25T23:55:25.175Z,99177.87
2023-04-25T23:58:28.222Z,99186.06
